Time;durP1;ratioP1;P1;durP2;ratioP2;P2;SDS_P1;SDS_P2;PMS_P1;PMS_P2;Temp;Humidity;BMP_temperature;BMP_pressure;BME280_temperature;BME280_humidity;BME280_pressure;Samples;Min_cycle;Max_cycle;Signal;HPM_P1;HPM_P2
2022/04/15 00:01:22;;;;;;;9.63;4.72;;;;;;;29.50;13.71;98274.31;5064816;28;20039;-79
2022/04/15 00:03:49;;;;;;;6.30;3.42;;;;;;;29.59;13.50;98273.56;5067129;28;20059;-79
2022/04/15 00:06:16;;;;;;;7.30;4.30;;;;;;;29.59;13.17;98277.19;5078501;28;20459;-79
2022/04/15 00:08:42;;;;;;;8.85;4.18;;;;;;;29.59;13.45;98274.34;5066772;28;20043;-78
2022/04/15 00:11:09;;;;;;;8.40;4.13;;;;;;;29.62;13.27;98272.59;5068159;28;20600;-79
2022/04/15 00:13:36;;;;;;;6.93;3.75;;;;;;;29.62;13.24;98273.41;5072525;28;20436;-79
2022/04/15 00:16:06;;;;;;;6.70;3.75;;;;;;;29.68;13.64;98270.75;5067903;28;20090;-78
2022/04/15 00:18:34;;;;;;;6.73;3.63;;;;;;;29.71;13.54;98279.09;5071546;28;22310;-79
2022/04/15 00:21:01;;;;;;;6.65;3.45;;;;;;;29.60;12.92;98280.78;5078426;28;20032;-79
2022/04/15 00:23:27;;;;;;;5.35;3.63;;;;;;;29.38;13.48;98284.47;5080495;28;20070;-77
2022/04/15 00:25:54;;;;;;;8.90;2.80;;;;;;;29.21;13.36;98282.38;5068182;28;20044;-78
2022/04/15 00:28:21;;;;;;;5.15;2.95;;;;;;;29.38;12.99;98292.97;5072245;28;20446;-79
2022/04/15 00:30:47;;;;;;;5.68;3.28;;;;;;;29.56;12.86;98280.16;5067179;28;20036;-78
2022/04/15 00:33:14;;;;;;;6.97;3.75;;;;;;;29.87;12.81;98295.06;5064487;28;20038;-79
2022/04/15 00:35:41;;;;;;;7.97;3.95;;;;;;;30.06;13.10;98288.13;5068410;28;20043;-79
2022/04/15 00:38:07;;;;;;;7.00;3.42;;;;;;;29.76;13.61;98284.16;5067033;28;20066;-79
2022/04/15 00:40:33;;;;;;;8.15;3.80;;;;;;;29.74;13.77;98294.34;5068667;28;20032;-78
2022/04/15 00:42:59;;;;;;;8.13;4.57;;;;;;;29.23;14.49;98283.47;5068587;28;20106;-79
2022/04/15 00:45:26;;;;;;;5.93;3.95;;;;;;;28.85;14.94;98280.09;5073143;28;20035;-79
2022/04/15 00:47:57;;;;;;;5.93;3.30;;;;;;;28.96;14.66;98276.88;5071350;28;20388;-79
2022/04/15 00:50:24;;;;;;;;;;;;;;;28.83;14.80;98279.78;5064806;28;20063;-79
2022/04/15 00:52:53;;;;;;;6.63;2.85;;;;;;;28.52;14.67;98274.03;5067798;28;20432;-79
2022/04/15 00:55:21;;;;;;;6.60;3.10;;;;;;;28.26;15.06;98278.25;5068534;28;20028;-79
2022/04/15 00:57:59;;;;;;;5.90;3.20;;;;;;;28.31;14.70;98280.47;5069493;28;20024;-79
2022/04/15 01:00:27;;;;;;;5.50;3.08;;;;;;;28.66;13.91;98270.72;5069321;28;20032;-79
2022/04/15 01:02:55;;;;;;;6.93;3.08;;;;;;;28.92;13.86;98274.16;5069229;28;20150;-79
2022/04/15 01:05:22;;;;;;;4.10;2.80;;;;;;;29.09;13.44;98275.53;5074290;28;20457;-79
2022/04/15 01:07:49;;;;;;;4.82;2.95;;;;;;;29.22;13.24;98284.72;5076760;28;20107;-79
2022/04/15 01:10:17;;;;;;;4.72;2.45;;;;;;;29.25;13.35;98278.16;5074050;28;20396;-78
2022/04/15 01:12:53;;;;;;;5.13;2.20;;;;;;;29.07;13.24;98280.88;5076148;28;20058;-79
2022/04/15 01:15:22;;;;;;;3.92;2.58;;;;;;;28.90;12.98;98273.84;5069470;28;20028;-79
2022/04/15 01:17:48;;;;;;;5.22;2.20;;;;;;;28.89;13.19;98269.47;5083178;28;20061;-79
2022/04/15 01:20:15;;;;;;;4.65;2.03;;;;;;;29.21;12.90;98273.88;5075140;28;20811;-79
2022/04/15 01:22:43;;;;;;;4.78;2.72;;;;;;;29.55;12.98;98267.25;5077707;28;20028;-79
2022/04/15 01:25:14;;;;;;;4.88;2.90;;;;;;;29.85;13.36;98272.09;5072770;28;20096;-78
2022/04/15 01:27:42;;;;;;;5.97;3.17;;;;;;;29.98;13.57;98265.03;5074833;28;20041;-79
2022/04/15 01:30:16;;;;;;;4.97;3.22;;;;;;;29.83;13.50;98269.72;5070760;28;20079;-79
2022/04/15 01:32:43;;;;;;;4.60;2.65;;;;;;;29.76;14.06;98270.00;5075366;28;20020;-79
2022/04/15 01:35:12;;;;;;;8.43;3.67;;;;;;;29.58;14.24;98269.94;5073628;28;20629;-79
2022/04/15 01:37:40;;;;;;;6.38;3.40;;;;;;;29.45;14.22;98265.66;5070718;28;20110;-78
2022/04/15 01:40:08;;;;;;;3.38;2.50;;;;;;;29.34;14.08;98271.72;5068491;28;20105;-78
2022/04/15 01:42:35;;;;;;;5.13;2.92;;;;;;;29.13;14.22;98264.84;5070003;28;20516;-79
2022/04/15 01:45:02;;;;;;;3.85;2.35;;;;;;;29.05;14.46;98263.56;5071020;28;20059;-79
2022/04/15 01:47:28;;;;;;;5.25;2.80;;;;;;;28.97;13.59;98261.47;5076584;28;20036;-79
2022/04/15 01:49:54;;;;;;;4.05;2.45;;;;;;;29.01;13.74;98260.09;5071316;28;20035;-78
2022/04/15 01:52:20;;;;;;;4.13;2.35;;;;;;;29.24;13.44;98261.66;5071452;28;20144;-79
2022/04/15 01:54:47;;;;;;;4.40;2.22;;;;;;;29.37;13.27;98251.00;5072408;28;20051;-79
2022/04/15 01:57:13;;;;;;;3.65;2.22;;;;;;;29.60;13.16;98258.94;5069694;28;20036;-78
2022/04/15 01:59:40;;;;;;;5.38;2.83;;;;;;;29.59;13.06;98260.22;5074353;28;20127;-78
2022/04/15 02:02:07;;;;;;;4.70;2.83;;;;;;;29.24;13.38;98264.47;5067658;28;20029;-78
2022/04/15 02:04:33;;;;;;;5.13;2.85;;;;;;;29.06;13.19;98262.31;5076515;28;20060;-78
2022/04/15 02:06:59;;;;;;;4.25;2.45;;;;;;;28.80;13.33;98266.56;5067916;28;20082;-78
2022/04/15 02:09:25;;;;;;;4.30;2.38;;;;;;;29.05;13.23;98257.13;5074141;28;20398;-78
2022/04/15 02:11:51;;;;;;;4.43;2.05;;;;;;;29.46;12.92;98253.06;5074894;28;20120;-78
2022/04/15 02:14:19;;;;;;;4.53;2.10;;;;;;;29.71;12.92;98256.44;5075541;28;20032;-78
2022/04/15 02:16:46;;;;;;;4.63;2.47;;;;;;;29.88;12.65;98257.78;5076183;28;20099;-78
2022/04/15 02:19:12;;;;;;;2.75;1.95;;;;;;;29.71;12.84;98262.09;5070891;28;20056;-78
2022/04/15 02:21:39;;;;;;;3.80;2.40;;;;;;;29.63;13.69;98258.00;5073842;28;20030;-79
2022/04/15 02:24:05;;;;;;;4.63;2.22;;;;;;;29.62;13.71;98255.63;5071014;28;20040;-79
2022/04/15 02:26:32;;;;;;;4.75;2.60;;;;;;;29.58;13.54;98250.13;5073966;28;20048;-79
2022/04/15 02:28:58;;;;;;;3.63;2.05;;;;;;;29.61;13.84;98259.72;5070121;28;20048;-79
2022/04/15 02:31:24;;;;;;;3.42;2.00;;;;;;;29.55;13.15;98268.03;5070642;28;20040;-79
2022/04/15 02:33:50;;;;;;;3.28;1.88;;;;;;;29.62;13.54;98264.13;5070746;28;20112;-79
2022/04/15 02:36:16;;;;;;;5.05;2.30;;;;;;;29.76;13.54;98269.22;5072410;28;20039;-79
2022/04/15 02:38:42;;;;;;;5.80;2.70;;;;;;;29.93;13.12;98268.47;5074101;28;20048;-79
2022/04/15 02:41:09;;;;;;;6.30;2.42;;;;;;;29.91;13.31;98264.53;5071688;28;22748;-78
2022/04/15 02:43:40;;;;;;;4.13;2.65;;;;;;;29.72;13.20;98268.56;5076559;28;20081;-79
2022/04/15 02:46:12;;;;;;;3.80;2.42;;;;;;;29.03;13.81;98260.44;5075184;28;20537;-78
2022/04/15 02:48:38;;;;;;;4.13;2.78;;;;;;;28.57;14.88;98258.53;5070768;28;20115;-78
2022/04/15 02:51:04;;;;;;;5.97;2.88;;;;;;;28.48;15.58;98258.47;5067765;28;20036;-78
2022/04/15 02:53:31;;;;;;;6.97;3.60;;;;;;;28.92;14.91;98267.72;5075633;28;20039;-78
2022/04/15 02:55:58;;;;;;;5.03;2.92;;;;;;;29.35;14.83;98265.63;5073657;28;20490;-78
2022/04/15 02:58:24;;;;;;;7.95;4.18;;;;;;;29.23;15.27;98263.69;5075021;28;20074;-78
2022/04/15 03:00:51;;;;;;;5.28;3.17;;;;;;;29.45;14.77;98268.47;5067965;28;20060;-78
2022/04/15 03:03:17;;;;;;;7.13;3.25;;;;;;;29.64;14.64;98273.72;5072159;28;20486;-78
2022/04/15 03:05:43;;;;;;;6.15;3.30;;;;;;;29.54;14.75;98271.34;5079828;28;20040;-78
2022/04/15 03:08:09;;;;;;;5.93;3.15;;;;;;;29.38;14.90;98281.66;5069985;28;20047;-79
2022/04/15 03:10:36;;;;;;;7.05;3.53;;;;;;;29.16;15.16;98280.91;5068284;28;20051;-78
2022/04/15 03:13:03;;;;;;;7.43;3.67;;;;;;;29.12;15.72;98291.56;5076350;28;20036;-78
2022/04/15 03:15:29;;;;;;;11.63;5.68;;;;;;;28.97;16.38;98293.38;5074916;28;20028;-79
2022/04/15 03:17:55;;;;;;;6.40;4.05;;;;;;;29.31;15.90;98293.25;5072473;28;20064;-79
2022/04/15 03:20:21;;;;;;;7.72;4.05;;;;;;;29.77;15.52;98288.59;5075292;28;20532;-79
2022/04/15 03:22:48;;;;;;;12.20;6.28;;;;;;;29.46;16.42;98292.69;5068406;28;20482;-78
2022/04/15 03:25:17;;;;;;;11.73;5.32;;;;;;;29.68;16.36;98287.72;5072216;28;20033;-79
2022/04/15 03:27:43;;;;;;;7.80;5.03;;;;;;;29.62;16.43;98295.25;5074638;28;20052;-78
2022/04/15 03:30:11;;;;;;;11.30;6.07;;;;;;;29.39;16.70;98288.91;5072524;28;20049;-79
2022/04/15 03:32:45;;;;;;;13.02;6.55;;;;;;;29.26;16.97;98293.09;5076042;28;20029;-78
2022/04/15 03:35:13;;;;;;;10.05;6.40;;;;;;;29.14;17.52;98303.22;5070063;28;20055;-78
2022/04/15 03:37:39;;;;;;;10.65;6.43;;;;;;;29.19;17.50;98299.03;5075287;28;20066;-79
2022/04/15 03:40:06;;;;;;;10.00;6.20;;;;;;;29.02;17.96;98306.09;5070485;28;20044;-78
2022/04/15 03:42:41;;;;;;;15.07;6.82;;;;;;;29.46;17.56;98304.00;5075587;28;20032;-78
2022/04/15 03:45:07;;;;;;;9.38;5.78;;;;;;;29.50;17.70;98299.00;5074562;28;20097;-78
2022/04/15 03:47:33;;;;;;;10.50;7.05;;;;;;;29.72;17.35;98289.16;5075651;28;20040;-78
2022/04/15 03:49:59;;;;;;;11.82;5.38;;;;;;;29.90;17.25;98296.94;5069223;28;20048;-79
2022/04/15 03:52:25;;;;;;;10.93;6.53;;;;;;;30.06;17.27;98291.75;5070358;28;20094;-79
2022/04/15 03:54:51;;;;;;;14.30;8.00;;;;;;;29.76;17.70;98289.81;5068592;28;20358;-78
2022/04/15 03:57:18;;;;;;;16.00;7.00;;;;;;;29.77;17.51;98299.09;5072196;28;20485;-78
2022/04/15 03:59:43;;;;;;;13.35;7.60;;;;;;;29.71;18.05;98307.38;5073785;28;20038;-79
2022/04/15 04:02:10;;;;;;;11.25;7.15;;;;;;;29.98;17.66;98312.38;5068257;28;20028;-79
2022/04/15 04:04:36;;;;;;;12.10;6.65;;;;;;;30.07;17.40;98316.00;5067545;28;20031;-79
2022/04/15 04:07:02;;;;;;;13.68;7.57;;;;;;;29.80;17.78;98318.75;5070738;28;20123;-78
2022/04/15 04:09:28;;;;;;;10.40;7.30;;;;;;;29.66;18.20;98327.03;5079483;28;20040;-79
2022/04/15 04:11:54;;;;;;;14.93;8.25;;;;;;;29.34;18.71;98333.97;5076220;28;20039;-79
2022/04/15 04:14:20;;;;;;;12.70;8.02;;;;;;;29.09;18.85;98336.94;5077270;28;20039;-78
2022/04/15 04:16:46;;;;;;;16.02;8.45;;;;;;;28.82;19.52;98345.25;5075338;28;20036;-79
2022/04/15 04:19:12;;;;;;;13.63;8.73;;;;;;;28.52;20.10;98344.66;5069779;28;20036;-78
2022/04/15 04:21:38;;;;;;;19.35;9.63;;;;;;;28.50;19.89;98347.16;5081909;28;20043;-79
2022/04/15 04:24:04;;;;;;;14.52;9.32;;;;;;;28.36;19.46;98361.00;5070260;28;20032;-79
2022/04/15 04:26:30;;;;;;;14.68;9.18;;;;;;;28.25;20.42;98352.09;5075644;28;20059;-78
2022/04/15 04:28:56;;;;;;;14.95;9.43;;;;;;;28.34;20.39;98352.97;5069021;28;20047;-79
2022/04/15 04:31:22;;;;;;;17.83;11.20;;;;;;;28.29;20.43;98341.47;5066141;28;20025;-79
2022/04/15 04:33:49;;;;;;;14.88;8.52;;;;;;;27.89;20.58;98347.63;5070428;28;20115;-79
2022/04/15 04:36:15;;;;;;;22.42;14.18;;;;;;;27.27;21.49;98352.03;5066025;28;20036;-79
2022/04/15 04:38:41;;;;;;;14.10;9.30;;;;;;;27.62;21.38;98355.78;5073227;28;20043;-79
2022/04/15 04:41:07;;;;;;;15.10;9.60;;;;;;;28.34;20.70;98355.81;5073773;28;20033;-79
2022/04/15 04:43:33;;;;;;;19.83;11.00;;;;;;;28.40;20.74;98358.84;5076946;28;20033;-79
2022/04/15 04:45:59;;;;;;;16.73;9.43;;;;;;;28.51;20.46;98359.25;5077280;28;20047;-79
2022/04/15 04:48:25;;;;;;;14.88;9.60;;;;;;;28.59;20.47;98367.03;5076170;28;20146;-79
2022/04/15 04:50:51;;;;;;;14.60;8.88;;;;;;;28.96;19.99;98368.13;5072882;28;20568;-79
2022/04/15 04:53:17;;;;;;;16.08;9.30;;;;;;;28.77;20.30;98365.63;5071488;28;20401;-78
2022/04/15 04:55:43;;;;;;;12.15;9.25;;;;;;;28.90;20.28;98366.34;5073812;28;20029;-79
2022/04/15 04:58:10;;;;;;;15.15;9.27;;;;;;;29.14;19.98;98370.28;5072782;28;20093;-79
2022/04/15 05:00:36;;;;;;;14.90;9.30;;;;;;;28.68;20.57;98378.41;5070529;28;20035;-79
2022/04/15 05:03:02;;;;;;;14.35;8.98;;;;;;;28.81;20.43;98384.03;5068842;28;20166;-79
2022/04/15 05:05:28;;;;;;;15.00;8.80;;;;;;;28.98;20.42;98381.81;5071580;28;20111;-79
2022/04/15 05:07:54;;;;;;;15.52;9.57;;;;;;;28.93;20.46;98380.34;5074144;28;20059;-79
2022/04/15 05:10:22;;;;;;;16.23;9.80;;;;;;;28.54;20.99;98372.47;5071230;28;20039;-79
2022/04/15 05:12:48;;;;;;;15.65;9.10;;;;;;;29.04;20.45;98380.75;5070847;28;20029;-79
2022/04/15 05:15:14;;;;;;;12.18;8.05;;;;;;;29.60;19.91;98383.44;5066545;28;20040;-79
2022/04/15 05:17:40;;;;;;;14.23;7.85;;;;;;;29.37;19.91;98384.75;5068487;28;20029;-79
2022/04/15 05:20:07;;;;;;;15.55;9.60;;;;;;;29.47;20.09;98396.91;5073971;28;20176;-79
2022/04/15 05:22:33;;;;;;;10.23;6.60;;;;;;;29.65;19.67;98396.22;5073637;28;20025;-79
2022/04/15 05:24:59;;;;;;;13.18;7.72;;;;;;;29.94;19.44;98408.78;5074026;28;20497;-79
2022/04/15 05:27:25;;;;;;;10.45;7.07;;;;;;;29.69;19.86;98406.13;5069148;28;20052;-79
2022/04/15 05:29:52;;;;;;;12.07;7.32;;;;;;;29.38;20.71;98408.19;5067618;28;20036;-79
2022/04/15 05:32:20;;;;;;;11.77;8.55;;;;;;;29.77;20.02;98403.84;5069402;28;20494;-79
2022/04/15 05:34:46;;;;;;;9.93;6.00;;;;;;;30.12;19.73;98410.09;5067688;28;20584;-78
2022/04/15 05:37:12;;;;;;;8.95;6.45;;;;;;;30.32;19.43;98411.25;5071117;28;20036;-79
2022/04/15 05:39:38;;;;;;;15.13;7.45;;;;;;;30.32;19.35;98416.13;5069891;28;20062;-79
2022/04/15 05:42:05;;;;;;;9.60;7.15;;;;;;;30.04;20.04;98406.78;5067874;28;20060;-79
2022/04/15 05:44:31;;;;;;;8.07;5.75;;;;;;;29.87;20.15;98409.06;5069919;28;20024;-79
2022/04/15 05:46:57;;;;;;;11.88;7.55;;;;;;;29.77;20.29;98404.63;5072039;28;20032;-79
2022/04/15 05:49:25;;;;;;;8.63;5.78;;;;;;;29.73;20.20;98408.84;5076045;28;20262;-80
2022/04/15 05:51:51;;;;;;;13.20;6.40;;;;;;;29.75;20.44;98403.50;5070852;28;20036;-79
2022/04/15 05:54:17;;;;;;;9.90;5.63;;;;;;;29.83;20.36;98404.81;5067808;28;20032;-78
2022/04/15 05:56:43;;;;;;;9.13;5.25;;;;;;;30.18;19.99;98411.84;5075056;28;20561;-81
2022/04/15 05:59:09;;;;;;;10.60;6.28;;;;;;;30.26;19.95;98401.00;5070896;28;20083;-80
2022/04/15 06:01:35;;;;;;;9.10;5.35;;;;;;;30.56;19.50;98403.78;5071852;28;20020;-81
2022/04/15 06:04:02;;;;;;;8.88;5.68;;;;;;;31.01;18.91;98405.06;5075367;28;20043;-80
2022/04/15 06:06:28;;;;;;;13.38;6.85;;;;;;;31.14;18.79;98408.53;5072345;28;21250;-80
2022/04/15 06:08:54;;;;;;;9.35;6.07;;;;;;;31.15;19.06;98416.56;5080090;28;20036;-80
2022/04/15 06:11:21;;;;;;;6.85;4.88;;;;;;;30.73;19.58;98429.78;5063543;28;20085;-80
2022/04/15 06:13:47;;;;;;;8.52;5.38;;;;;;;30.75;19.99;98433.72;5068926;28;20553;-80
2022/04/15 06:16:17;;;;;;;11.23;5.28;;;;;;;30.85;19.36;98436.56;5064930;28;20043;-80
2022/04/15 06:18:43;;;;;;;9.27;6.07;;;;;;;30.88;19.76;98436.41;5079820;28;20020;-80
2022/04/15 06:21:09;;;;;;;7.22;4.82;;;;;;;31.01;19.31;98420.06;5070532;28;20253;-80
2022/04/15 06:23:35;;;;;;;9.88;6.00;;;;;;;31.33;19.01;98427.88;5079669;28;20032;-80
2022/04/15 06:26:01;;;;;;;18.58;9.18;;;;;;;31.49;19.51;98412.59;5075747;28;20053;-79
2022/04/15 06:28:27;;;;;;;10.52;6.55;;;;;;;31.38;19.54;98415.91;5075663;28;20024;-80
2022/04/15 06:30:56;;;;;;;12.25;7.07;;;;;;;31.30;19.74;98422.38;5078553;28;20040;-80
2022/04/15 06:33:23;;;;;;;10.50;5.63;;;;;;;30.92;20.80;98434.22;5073227;28;20042;-79
2022/04/15 06:35:51;;;;;;;9.15;5.70;;;;;;;31.06;19.80;98430.78;5077242;28;20025;-79
2022/04/15 06:38:18;;;;;;;10.80;6.35;;;;;;;31.17;19.67;98433.91;5075245;28;20025;-79
2022/04/15 06:40:44;;;;;;;11.18;5.65;;;;;;;31.29;19.86;98437.84;5073160;28;20041;-79
2022/04/15 06:43:10;;;;;;;9.65;5.45;;;;;;;31.37;19.75;98444.75;5070705;28;20036;-81
2022/04/15 06:45:36;;;;;;;9.20;5.57;;;;;;;31.59;19.29;98445.38;5075974;28;20032;-79
2022/04/15 06:48:03;;;;;;;10.15;5.50;;;;;;;31.30;20.01;98436.56;5073146;28;20029;-79
2022/04/15 06:50:31;;;;;;;6.90;5.07;;;;;;;30.88;20.76;98422.25;5078772;28;20077;-79
2022/04/15 06:52:57;;;;;;;9.25;5.22;;;;;;;30.70;20.74;98414.50;5072295;28;20111;-79
2022/04/15 06:55:23;;;;;;;6.57;4.82;;;;;;;31.05;20.52;98428.38;5070417;28;20028;-79
2022/04/15 06:57:49;;;;;;;5.68;4.57;;;;;;;31.38;20.14;98427.25;5073540;28;20037;-79
2022/04/15 07:00:15;;;;;;;8.40;4.53;;;;;;;31.32;20.29;98426.31;5075269;28;20067;-79
2022/04/15 07:02:41;;;;;;;6.05;4.88;;;;;;;31.48;20.36;98425.22;5076261;28;20109;-79
2022/04/15 07:05:09;;;;;;;6.07;4.38;;;;;;;31.65;20.17;98431.31;5073874;28;20039;-79
2022/04/15 07:07:36;;;;;;;6.30;4.38;;;;;;;31.69;20.13;98429.91;5074665;28;20031;-79
2022/04/15 07:10:03;;;;;;;6.05;4.82;;;;;;;31.66;20.31;98424.38;5078519;28;20076;-80
2022/04/15 07:12:30;;;;;;;9.20;5.30;;;;;;;31.76;20.14;98421.03;5078615;28;20029;-80
2022/04/15 07:14:57;;;;;;;8.55;4.72;;;;;;;31.98;19.81;98415.13;5079710;28;20038;-80
2022/04/15 07:17:23;;;;;;;7.63;5.30;;;;;;;32.11;19.63;98414.91;5078242;28;20104;-81
2022/04/15 07:19:50;;;;;;;8.95;5.40;;;;;;;32.05;20.01;98424.09;5077929;28;20037;-80
2022/04/15 07:22:19;;;;;;;8.50;5.20;;;;;;;31.95;20.08;98422.50;5080931;28;20094;-80
2022/04/15 07:24:47;;;;;;;7.55;5.15;;;;;;;31.60;20.79;98427.06;5073499;28;20402;-80
2022/04/15 07:27:13;;;;;;;9.60;5.68;;;;;;;31.38;21.13;98415.09;5073663;28;21911;-81
2022/04/15 07:29:39;;;;;;;10.52;6.07;;;;;;;31.06;21.42;98424.31;5076177;28;20046;-80
2022/04/15 07:32:05;;;;;;;8.77;6.05;;;;;;;31.11;21.12;98426.50;5075230;28;20028;-80
2022/04/15 07:34:34;;;;;;;8.45;6.40;;;;;;;31.28;21.04;98437.03;5074961;28;20032;-80
2022/04/15 07:37:03;;;;;;;7.43;5.70;;;;;;;31.18;20.98;98441.13;5077699;28;20497;-80
2022/04/15 07:39:31;;;;;;;6.65;5.30;;;;;;;31.11;21.21;98444.28;5079521;28;20027;-80
2022/04/15 07:41:57;;;;;;;7.97;5.65;;;;;;;31.16;21.26;98438.00;5081056;28;20035;-80
2022/04/15 07:44:24;;;;;;;8.70;5.30;;;;;;;31.29;21.11;98438.63;5074795;28;20417;-80
2022/04/15 07:46:50;;;;;;;7.43;4.93;;;;;;;31.50;20.93;98433.25;5078729;28;20485;-80
2022/04/15 07:49:16;;;;;;;7.68;5.20;;;;;;;31.49;21.14;98443.81;5072966;28;20123;-80
2022/04/15 07:51:42;;;;;;;10.00;5.28;;;;;;;31.30;21.50;98450.75;5080827;28;20482;-80
2022/04/15 07:54:09;;;;;;;6.68;5.07;;;;;;;31.13;21.64;98444.63;5073082;28;20081;-80
2022/04/15 07:56:35;;;;;;;7.43;5.15;;;;;;;31.26;21.63;98442.41;5074843;28;20482;-81
2022/04/15 07:59:03;;;;;;;9.45;5.55;;;;;;;31.31;21.40;98440.97;5076742;28;20482;-81
2022/04/15 08:01:30;;;;;;;11.30;4.90;;;;;;;31.51;21.25;98455.47;5079621;28;20037;-80
2022/04/15 08:03:57;;;;;;;8.00;5.55;;;;;;;31.44;21.33;98444.44;5072314;28;20034;-80
2022/04/15 08:06:24;;;;;;;6.93;5.47;;;;;;;31.17;21.62;98448.09;5073888;28;20028;-81
2022/04/15 08:08:54;;;;;;;6.68;5.57;;;;;;;31.02;21.77;98446.34;5077025;28;20485;-82
2022/04/15 08:11:20;;;;;;;8.30;5.82;;;;;;;30.92;21.98;98441.94;5078422;28;20070;-81
2022/04/15 08:13:47;;;;;;;6.20;5.07;;;;;;;31.39;21.71;98445.06;5073113;28;20430;-81
2022/04/15 08:16:13;;;;;;;8.43;5.95;;;;;;;31.61;21.20;98450.56;5074206;28;20028;-81
2022/04/15 08:18:39;;;;;;;7.85;5.45;;;;;;;31.25;21.88;98452.16;5075444;28;20047;-81
2022/04/15 08:21:05;;;;;;;7.43;5.88;;;;;;;30.83;22.08;98459.69;5069028;28;20055;-81
2022/04/15 08:23:31;;;;;;;6.03;5.20;;;;;;;30.28;22.78;98455.94;5071287;28;20046;-82
2022/04/15 08:25:57;;;;;;;6.38;4.88;;;;;;;30.04;22.72;98463.41;5076504;28;20133;-82
2022/04/15 08:28:23;;;;;;;7.28;5.28;;;;;;;30.27;22.67;98459.25;5076425;28;20040;-81
2022/04/15 08:30:49;;;;;;;6.20;4.90;;;;;;;30.75;22.21;98461.28;5071502;28;20490;-82
2022/04/15 08:33:16;;;;;;;9.65;6.88;;;;;;;30.64;22.12;98450.38;5073936;28;20115;-80
2022/04/15 08:35:42;;;;;;;7.65;5.10;;;;;;;30.86;22.05;98449.47;5071140;28;20029;-81
2022/04/15 08:38:08;;;;;;;7.93;5.75;;;;;;;30.84;21.96;98455.63;5071095;28;20425;-81
2022/04/15 08:40:37;;;;;;;10.40;6.28;;;;;;;30.66;22.23;98462.06;5080350;28;20032;-81
2022/04/15 08:43:05;;;;;;;7.63;5.72;;;;;;;30.73;21.90;98453.25;5077772;28;20112;-79
2022/04/15 08:45:32;;;;;;;9.55;6.93;;;;;;;30.44;22.00;98458.53;5072619;28;20036;-80
2022/04/15 08:48:02;;;;;;;9.95;6.50;;;;;;;30.43;22.34;98459.81;5076897;28;20368;-79
2022/04/15 08:50:29;;;;;;;7.97;5.78;;;;;;;30.26;22.66;98457.69;5077670;28;20592;-79
2022/04/15 08:52:57;;;;;;;12.65;7.05;;;;;;;30.22;22.77;98463.50;5077693;28;20040;-79
2022/04/15 08:55:25;;;;;;;11.32;6.75;;;;;;;29.94;23.35;98470.31;5072549;28;20078;-79
2022/04/15 08:57:52;;;;;;;13.65;7.57;;;;;;;29.91;23.56;98474.84;5077617;28;20040;-79
2022/04/15 09:00:19;;;;;;;9.55;7.05;;;;;;;29.51;23.84;98462.63;5079971;28;20033;-78
2022/04/15 09:02:46;;;;;;;11.60;8.50;;;;;;;29.42;24.38;98473.91;5076282;28;20029;-81
2022/04/15 09:05:17;;;;;;;15.77;10.27;;;;;;;29.36;24.40;98470.06;5074696;28;20055;-80
2022/04/15 09:07:44;;;;;;;9.02;7.50;;;;;;;28.63;25.27;98477.94;5075016;28;20489;-79
2022/04/15 09:10:11;;;;;;;10.57;7.03;;;;;;;28.73;25.61;98475.94;5073622;28;20044;-80
2022/04/15 09:12:39;;;;;;;10.82;7.43;;;;;;;28.83;25.69;98469.16;5080439;28;20075;-80
2022/04/15 09:15:08;;;;;;;10.55;6.82;;;;;;;29.20;24.73;98465.41;5074659;28;20120;-80
2022/04/15 09:17:43;;;;;;;10.65;8.02;;;;;;;28.96;25.20;98467.09;5076147;28;21045;-81
2022/04/15 09:20:11;;;;;;;14.27;9.52;;;;;;;28.72;25.93;98465.91;5072679;28;20036;-81
2022/04/15 09:22:38;;;;;;;11.77;8.40;;;;;;;29.06;25.79;98454.59;5078137;28;20096;-81
2022/04/15 09:25:05;;;;;;;11.52;8.35;;;;;;;28.71;25.93;98458.66;5084100;28;20039;-81
2022/04/15 09:27:33;;;;;;;11.52;8.32;;;;;;;28.95;25.63;98457.00;5082158;28;20059;-81
2022/04/15 09:29:59;;;;;;;9.60;7.95;;;;;;;29.11;25.41;98453.19;5080162;28;20079;-80
2022/04/15 09:32:27;;;;;;;11.88;8.85;;;;;;;29.00;25.54;98456.44;5074337;28;20086;-81
2022/04/15 09:35:07;;;;;;;16.13;10.15;;;;;;;28.84;25.38;98453.00;5080893;28;20032;-81
2022/04/15 09:37:42;;;;;;;13.50;9.82;;;;;;;28.25;26.67;98450.94;5077847;28;20025;-81
2022/04/15 09:40:13;;;;;;;11.13;8.98;;;;;;;28.51;26.75;98444.00;5080902;28;20101;-80
2022/04/15 09:42:54;;;;;;;10.30;8.00;;;;;;;28.73;26.12;98454.16;5083449;28;20473;-79
2022/04/15 09:45:21;;;;;;;10.70;7.68;;;;;;;28.59;26.20;98446.16;5082392;28;20024;-80
2022/04/15 09:48:01;;;;;;;11.90;8.75;;;;;;;28.59;26.77;98434.84;5092478;28;20036;-79
2022/04/15 09:50:37;;;;;;;11.02;8.38;;;;;;;28.37;26.47;98450.13;5082295;28;20024;-79
2022/04/15 09:53:13;;;;;;;10.02;8.43;;;;;;;28.62;26.23;98441.63;5083685;28;20031;-80
2022/04/15 09:55:41;;;;;;;12.50;8.75;;;;;;;28.11;27.04;98451.41;5085504;28;20114;-79
2022/04/15 09:58:18;;;;;;;11.70;8.35;;;;;;;27.77;26.91;98452.84;5076220;28;20029;-79
2022/04/15 10:00:48;;;;;;;11.48;8.43;;;;;;;27.81;27.31;98455.56;5075918;28;20043;-79
2022/04/15 10:03:27;;;;;;;9.35;6.82;;;;;;;28.21;27.83;98447.44;5075000;28;20040;-80
2022/04/15 10:05:56;;;;;;;8.30;5.75;;;;;;;29.22;26.68;98440.28;5079874;28;20043;-81
2022/04/15 10:08:25;;;;;;;7.85;5.80;;;;;;;29.58;25.50;98445.38;5077432;28;20032;-80
2022/04/15 10:10:52;;;;;;;6.85;5.15;;;;;;;29.97;25.03;98447.50;5090656;28;20047;-80
2022/04/15 10:13:20;;;;;;;7.07;5.05;;;;;;;30.21;24.51;98459.06;5088144;28;20043;-80
2022/04/15 10:15:49;;;;;;;6.25;4.50;;;;;;;30.02;25.06;98451.75;5084288;28;20031;-81
2022/04/15 10:18:15;;;;;;;6.82;5.22;;;;;;;30.09;24.84;98448.66;5073813;28;20569;-80
2022/04/15 10:20:42;;;;;;;5.30;4.80;;;;;;;29.68;25.18;98449.84;5074752;28;20059;-80
2022/04/15 10:23:11;;;;;;;4.03;3.63;;;;;;;29.37;25.43;98449.81;5078744;28;20021;-80
2022/04/15 10:25:42;;;;;;;4.93;3.90;;;;;;;29.63;25.77;98458.16;5078571;28;20044;-80
2022/04/15 10:28:31;;;;;;;;;;;;;;;28.98;26.16;98450.44;5080931;28;20033;-80
2022/04/15 10:31:16;;;;;;;4.70;3.50;;;;;;;29.06;26.24;98451.75;5067047;28;20011;-80
2022/04/15 10:33:43;;;;;;;4.13;3.33;;;;;;;29.16;26.03;98456.25;5079907;28;20389;-80
2022/04/15 10:36:20;;;;;;;3.80;3.38;;;;;;;29.10;26.01;98446.75;5087790;28;20431;-80
2022/04/15 10:39:07;;;;;;;5.40;4.20;;;;;;;28.65;26.67;98443.56;5082107;28;20060;-80
2022/04/15 10:41:42;;;;;;;4.40;3.42;;;;;;;28.79;26.72;98442.25;5083814;28;20039;-80
2022/04/15 10:44:12;;;;;;;4.82;4.32;;;;;;;27.87;27.44;98450.91;5081444;28;20032;-80
2022/04/15 10:46:39;;;;;;;4.90;4.40;;;;;;;27.60;28.33;98447.75;5078554;28;20040;-80
2022/04/15 10:49:22;;;;;;;5.13;3.95;;;;;;;28.22;27.59;98443.38;5081005;28;20039;-80
2022/04/15 10:51:52;;;;;;;4.30;3.88;;;;;;;28.14;27.03;98444.88;5074076;28;20050;-80
2022/04/15 10:54:36;;;;;;;7.97;4.88;;;;;;;27.90;27.91;98450.81;5074687;28;20020;-79
2022/04/15 10:57:10;;;;;;;6.43;5.13;;;;;;;27.80;28.30;98453.97;5075688;28;20036;-80
2022/04/15 11:02:49;;;;;;;5.45;4.32;;;;;;;28.96;26.80;98429.53;5081747;28;20039;-80
2022/04/15 11:05:43;;;;;;;5.50;4.28;;;;;;;29.34;26.78;98432.97;5079968;28;20034;-80
2022/04/15 11:08:14;;;;;;;5.78;4.75;;;;;;;29.49;26.67;98436.06;5079847;28;20028;-80
2022/04/15 11:10:45;;;;;;;5.35;4.38;;;;;;;29.76;26.80;98437.00;5082227;28;20032;-80
2022/04/15 11:13:29;;;;;;;;;;;;;;;29.73;26.15;98437.94;5077205;28;20031;-80
2022/04/15 11:16:18;;;;;;;5.28;4.18;;;;;;;29.72;26.41;98436.34;5074661;28;19917;-80
2022/04/15 11:18:50;;;;;;;6.35;5.47;;;;;;;29.86;26.02;98437.84;5077561;28;20032;-79
2022/04/15 11:21:21;;;;;;;6.15;4.30;;;;;;;30.22;25.83;98435.16;5076892;28;20417;-80
2022/04/15 11:23:53;;;;;;;6.60;3.90;;;;;;;30.62;25.54;98438.72;5075884;28;20032;-80
2022/04/15 11:26:24;;;;;;;4.38;3.97;;;;;;;30.34;25.39;98445.59;5078878;28;20044;-80
2022/04/15 11:28:52;;;;;;;6.55;5.30;;;;;;;30.35;25.40;98443.56;5076177;28;20075;-80
2022/04/15 11:31:18;;;;;;;4.82;4.00;;;;;;;30.35;25.66;98438.69;5076959;28;20033;-80
2022/04/15 11:33:44;;;;;;;4.25;3.85;;;;;;;30.37;25.87;98441.03;5074699;28;20039;-80
2022/04/15 11:36:11;;;;;;;6.60;5.72;;;;;;;30.08;25.27;98438.59;5073174;28;20048;-80
2022/04/15 11:38:37;;;;;;;4.80;3.70;;;;;;;30.66;25.33;98433.72;5073247;28;20032;-80